createdAt,value
2018-11-26T00:01:31.054Z,3.86
2018-11-26T00:04:01.583Z,3.87
2018-11-26T00:06:37.245Z,3.86
2018-11-26T00:09:10.721Z,3.85
2018-11-26T00:11:41.698Z,3.88
2018-11-26T00:14:17.195Z,3.88
2018-11-26T00:16:51.627Z,3.89
2018-11-26T00:19:29.575Z,3.90
2018-11-26T00:21:59.745Z,3.92
2018-11-26T00:24:32.120Z,3.92
2018-11-26T00:27:04.263Z,3.90
2018-11-26T00:29:33.903Z,3.89
2018-11-26T00:32:04.953Z,3.93
2018-11-26T00:34:36.111Z,3.91
2018-11-26T00:37:08.173Z,3.95
2018-11-26T00:39:39.045Z,3.94
2018-11-26T00:42:10.032Z,3.94
2018-11-26T00:44:42.336Z,3.96
2018-11-26T00:47:13.115Z,3.95
2018-11-26T00:49:43.172Z,3.95
2018-11-26T00:52:13.058Z,3.93
2018-11-26T00:54:44.263Z,3.94
2018-11-26T00:57:13.632Z,4.04
2018-11-26T00:59:44.925Z,4.01
2018-11-26T01:02:17.965Z,4.00
2018-11-26T01:04:48.039Z,3.97
2018-11-26T01:07:19.257Z,4.02
2018-11-26T01:09:50.036Z,4.00
2018-11-26T01:12:20.052Z,3.98
2018-11-26T01:14:50.184Z,4.01
2018-11-26T01:17:21.671Z,4.01
2018-11-26T01:19:51.237Z,3.97
2018-11-26T01:22:21.108Z,3.93
2018-11-26T01:24:52.212Z,3.91
2018-11-26T01:27:22.136Z,3.91
2018-11-26T01:29:53.981Z,3.89
2018-11-26T01:32:26.063Z,3.81
2018-11-26T01:34:57.207Z,3.80
2018-11-26T01:37:29.905Z,3.79
2018-11-26T01:40:00.381Z,3.81
2018-11-26T01:42:30.367Z,3.82
2018-11-26T01:45:01.296Z,3.82
2018-11-26T01:47:32.349Z,3.82
2018-11-26T01:50:02.307Z,3.83
2018-11-26T01:52:32.393Z,3.82
2018-11-26T01:55:03.400Z,3.80
2018-11-26T01:57:33.319Z,3.78
2018-11-26T02:00:04.408Z,3.81
2018-11-26T02:02:36.279Z,3.80
2018-11-26T02:05:10.303Z,3.80
2018-11-26T02:07:43.393Z,3.81
2018-11-26T02:10:14.636Z,3.79
2018-11-26T02:12:45.485Z,3.76
2018-11-26T02:15:42.707Z,3.75
2018-11-26T02:18:12.417Z,3.79
2018-11-26T02:20:42.275Z,3.77
2018-11-26T02:23:16.519Z,3.76
2018-11-26T02:25:49.719Z,3.76
2018-11-26T02:28:19.593Z,3.77
2018-11-26T02:30:49.497Z,3.79
2018-11-26T02:33:19.543Z,3.77
2018-11-26T02:35:50.463Z,3.76
2018-11-26T02:38:20.358Z,3.73
2018-11-26T02:40:50.448Z,3.72
2018-11-26T02:43:22.403Z,3.71
2018-11-26T02:45:54.567Z,3.69
2018-11-26T02:48:24.459Z,3.69
2018-11-26T02:51:01.240Z,3.68
2018-11-26T02:53:31.512Z,3.69
2018-11-26T02:56:01.625Z,3.69
2018-11-26T02:58:32.276Z,3.70
2018-11-26T03:01:03.127Z,3.71
2018-11-26T03:03:32.683Z,3.70
2018-11-26T03:06:03.544Z,3.71
2018-11-26T03:08:33.672Z,3.70
2018-11-26T03:11:04.527Z,3.60
2018-11-26T03:13:37.849Z,3.61
2018-11-26T03:16:07.731Z,3.70
2018-11-26T03:18:39.072Z,3.69
2018-11-26T03:21:08.799Z,3.71
2018-11-26T03:23:39.788Z,3.67
2018-11-26T03:26:09.708Z,3.67
2018-11-26T03:28:39.766Z,3.66
2018-11-26T03:31:10.691Z,3.63
2018-11-26T03:33:40.631Z,3.64
2018-11-26T03:36:11.801Z,3.66
2018-11-26T03:38:54.532Z,3.67
2018-11-26T03:41:24.805Z,3.65
2018-11-26T03:43:54.698Z,3.68
2018-11-26T03:46:30.787Z,3.69
2018-11-26T03:49:01.924Z,3.63
2018-11-26T03:51:31.820Z,3.60
2018-11-26T03:54:02.759Z,3.70
2018-11-26T03:56:32.697Z,3.64
2018-11-26T03:59:06.664Z,3.61
2018-11-26T04:01:42.931Z,3.64
2018-11-26T04:04:12.831Z,3.64
2018-11-26T04:06:43.020Z,3.75
2018-11-26T04:09:13.327Z,3.67
2018-11-26T04:11:43.820Z,3.69
2018-11-26T04:14:13.483Z,3.69
2018-11-26T04:16:47.787Z,3.68
2018-11-26T04:19:17.860Z,3.69
2018-11-26T04:21:48.013Z,3.69
2018-11-26T04:24:19.015Z,3.68
2018-11-26T04:26:49.052Z,3.65
2018-11-26T04:29:18.992Z,3.65
2018-11-26T04:31:50.744Z,3.75
2018-11-26T04:34:24.437Z,3.77
2018-11-26T04:36:56.152Z,3.77
2018-11-26T04:39:30.901Z,3.81
2018-11-26T04:42:03.085Z,3.78
2018-11-26T04:44:33.799Z,3.77
2018-11-26T04:47:07.141Z,3.75
2018-11-26T04:49:37.156Z,3.72
2018-11-26T04:52:08.259Z,3.72
2018-11-26T04:54:38.051Z,3.72
2018-11-26T04:57:08.140Z,3.73
2018-11-26T04:59:39.059Z,3.73
2018-11-26T05:02:09.953Z,3.74
2018-11-26T05:04:44.339Z,3.74
2018-11-26T05:07:13.760Z,3.76
2018-11-26T05:09:45.256Z,3.76
2018-11-26T05:12:17.169Z,3.78
2018-11-26T05:14:46.537Z,3.79
2018-11-26T05:17:17.387Z,3.77
2018-11-26T05:19:49.066Z,3.74
2018-11-26T05:22:22.965Z,3.72
2018-11-26T05:25:01.561Z,3.76
2018-11-26T05:27:34.382Z,3.77
2018-11-26T05:30:04.840Z,3.76
2018-11-26T05:32:34.405Z,3.72
2018-11-26T05:35:06.578Z,3.71
2018-11-26T05:37:38.350Z,3.76
2018-11-26T05:40:14.391Z,3.81
2018-11-26T05:42:45.345Z,3.79
2018-11-26T05:45:17.715Z,3.74
2018-11-26T05:47:49.431Z,3.75
2018-11-26T05:50:20.343Z,3.75
2018-11-26T05:52:52.483Z,3.73
2018-11-26T05:55:23.448Z,3.75
2018-11-26T05:57:53.567Z,3.70
2018-11-26T06:00:29.488Z,3.71
2018-11-26T06:03:00.420Z,3.69
2018-11-26T06:05:31.051Z,3.67
2018-11-26T06:08:01.478Z,3.68
2018-11-26T06:10:32.047Z,3.69
2018-11-26T06:13:03.096Z,3.70
2018-11-26T06:15:32.476Z,3.70
2018-11-26T06:18:06.371Z,3.70
2018-11-26T06:20:37.391Z,3.67
2018-11-26T06:23:07.869Z,3.66
2018-11-26T06:25:37.609Z,3.66
2018-11-26T06:28:07.669Z,3.69
2018-11-26T06:30:38.406Z,3.69
2018-11-26T06:33:09.624Z,3.68
2018-11-26T06:35:42.561Z,3.72
2018-11-26T06:38:13.505Z,3.64
2018-11-26T06:40:45.443Z,3.63
2018-11-26T06:43:17.631Z,3.64
2018-11-26T06:45:50.000Z,3.62
2018-11-26T06:48:20.612Z,3.59
2018-11-26T06:50:52.892Z,3.58
2018-11-26T06:53:24.228Z,3.56
2018-11-26T06:55:53.640Z,3.55
2018-11-26T06:58:26.572Z,3.52
2018-11-26T07:00:57.596Z,3.55
2018-11-26T07:03:27.712Z,3.57
2018-11-26T07:05:57.923Z,3.58
2018-11-26T07:08:28.800Z,3.59
2018-11-26T07:10:58.835Z,3.58
2018-11-26T07:13:28.871Z,3.57
2018-11-26T07:15:59.136Z,3.54
2018-11-26T07:18:29.935Z,3.51
2018-11-26T07:20:59.998Z,3.40
2018-11-26T07:23:31.009Z,3.33
2018-11-26T07:26:00.720Z,3.28
2018-11-26T07:28:30.791Z,3.30
2018-11-26T07:31:04.927Z,3.33
2018-11-26T07:33:34.892Z,3.38
2018-11-26T07:36:11.191Z,3.34
2018-11-26T07:38:35.808Z,3.37
2018-11-26T07:41:08.699Z,3.39
2018-11-26T07:43:38.807Z,3.43
2018-11-26T07:46:12.683Z,3.44
2018-11-26T07:48:45.849Z,3.46
2018-11-26T07:51:16.244Z,3.47
2018-11-26T07:53:46.590Z,3.51
2018-11-26T07:56:19.824Z,3.50
2018-11-26T07:58:50.284Z,3.52
2018-11-26T08:01:20.956Z,3.51
2018-11-26T08:03:50.996Z,3.55
2018-11-26T08:06:20.913Z,3.53
2018-11-26T08:08:52.051Z,3.54
2018-11-26T08:11:21.933Z,3.55
2018-11-26T08:13:53.004Z,3.49
2018-11-26T08:16:22.927Z,3.47
2018-11-26T08:18:53.580Z,3.49
2018-11-26T08:21:24.107Z,3.50
2018-11-26T08:23:54.483Z,3.52
2018-11-26T08:26:25.268Z,3.53
2018-11-26T08:28:55.220Z,3.55
2018-11-26T08:31:26.299Z,3.53
2018-11-26T08:33:56.079Z,3.54
2018-11-26T08:36:31.180Z,3.52
2018-11-26T08:39:09.196Z,3.52
2018-11-26T08:41:43.364Z,3.53
2018-11-26T08:44:17.968Z,3.52
2018-11-26T08:46:52.312Z,3.52
2018-11-26T08:49:26.628Z,3.52
2018-11-26T08:51:56.095Z,3.47
2018-11-26T08:54:26.313Z,3.51
2018-11-26T08:56:57.211Z,3.52
2018-11-26T08:59:26.592Z,3.55
2018-11-26T09:02:02.759Z,3.54
2018-11-26T09:04:43.518Z,3.55
2018-11-26T09:07:14.162Z,3.54
2018-11-26T09:09:44.317Z,3.54
2018-11-26T09:12:14.292Z,3.55
2018-11-26T09:14:45.332Z,3.52
2018-11-26T09:17:14.708Z,3.56
2018-11-26T09:19:49.348Z,3.53
2018-11-26T09:22:25.288Z,3.50
2018-11-26T09:24:56.427Z,3.51
2018-11-26T09:27:26.847Z,3.48
2018-11-26T09:29:56.265Z,3.43
2018-11-26T09:32:27.500Z,3.41
2018-11-26T09:34:57.397Z,3.41
2018-11-26T09:37:28.400Z,3.43
2018-11-26T09:39:58.292Z,3.43
2018-11-26T09:42:33.191Z,3.40
2018-11-26T09:45:05.027Z,3.47
2018-11-26T09:47:38.169Z,3.37
2018-11-26T09:50:11.218Z,3.36
2018-11-26T09:52:51.225Z,3.37
2018-11-26T09:55:21.132Z,3.22
2018-11-26T09:57:52.827Z,3.12
2018-11-26T10:00:23.636Z,2.99
2018-11-26T10:02:53.683Z,2.73
2018-11-26T10:05:25.560Z,2.50
2018-11-26T10:07:54.955Z,2.64
2018-11-26T10:10:25.391Z,2.47
2018-11-26T10:12:55.734Z,2.38
2018-11-26T10:15:27.028Z,1.91
2018-11-26T10:17:56.525Z,2.02
2018-11-26T10:20:26.557Z,2.14
2018-11-26T10:22:57.517Z,2.19
2018-11-26T10:25:28.277Z,2.37
2018-11-26T10:27:58.520Z,2.39
2018-11-26T10:30:29.228Z,2.34
2018-11-26T10:33:06.368Z,2.15
2018-11-26T10:35:38.656Z,2.03
2018-11-26T10:38:09.583Z,2.02
2018-11-26T10:40:39.875Z,2.08
2018-11-26T10:43:11.731Z,1.98
2018-11-26T10:45:40.683Z,1.88
2018-11-26T10:48:11.564Z,1.95
2018-11-26T10:50:41.700Z,1.96
2018-11-26T10:53:11.875Z,1.66
2018-11-26T10:55:42.755Z,1.75
2018-11-26T10:58:12.750Z,1.74
2018-11-26T11:00:48.912Z,1.91
2018-11-26T11:03:23.351Z,1.83
2018-11-26T11:06:00.641Z,1.91
2018-11-26T11:08:32.792Z,1.91
2018-11-26T11:11:06.739Z,1.93
2018-11-26T11:13:36.817Z,1.78
2018-11-26T11:16:07.856Z,1.85
2018-11-26T11:18:41.815Z,1.91
2018-11-26T11:21:12.580Z,1.77
2018-11-26T11:23:50.839Z,1.94
2018-11-26T11:26:23.067Z,1.77
2018-11-26T11:28:54.777Z,1.75
2018-11-26T11:31:25.647Z,1.78
2018-11-26T11:33:58.845Z,1.78
2018-11-26T11:36:29.973Z,1.77
2018-11-26T11:38:59.892Z,1.71
2018-11-26T11:41:34.330Z,1.76
2018-11-26T11:44:01.364Z,1.71
2018-11-26T11:46:31.981Z,1.76
2018-11-26T11:52:02.215Z,1.85
2018-11-26T11:54:35.770Z,1.80
2018-11-26T11:57:12.981Z,1.89
2018-11-26T11:59:43.917Z,1.87
2018-11-26T12:02:16.104Z,1.91
2018-11-26T12:04:45.057Z,1.95
2018-11-26T12:07:14.509Z,2.09
2018-11-26T12:09:45.959Z,2.13
2018-11-26T12:12:23.006Z,2.27
2018-11-26T12:14:54.031Z,2.06
2018-11-26T12:17:25.969Z,1.79
2018-11-26T12:19:57.858Z,1.89
2018-11-26T12:22:30.986Z,1.78
2018-11-26T12:25:02.265Z,1.85
2018-11-26T12:27:32.329Z,1.95
2018-11-26T12:30:03.254Z,2.02
2018-11-26T12:32:33.110Z,2.13
2018-11-26T12:35:04.272Z,2.11
2018-11-26T12:37:34.209Z,2.13
2018-11-26T12:40:08.315Z,2.19
2018-11-26T12:42:39.405Z,2.16
2018-11-26T12:45:15.345Z,2.13
2018-11-26T12:47:46.243Z,2.13
2018-11-26T12:50:17.708Z,2.19
2018-11-26T12:52:47.331Z,2.26
2018-11-26T12:55:19.607Z,2.16
2018-11-26T12:57:55.280Z,2.20
2018-11-26T13:00:26.463Z,2.18
2018-11-26T13:03:03.919Z,2.03
2018-11-26T13:05:35.278Z,1.93
2018-11-26T13:08:06.736Z,1.80
2018-11-26T13:10:37.756Z,1.83
2018-11-26T13:13:08.545Z,1.91
2018-11-26T13:15:38.450Z,1.98
2018-11-26T13:18:09.412Z,1.98
2018-11-26T13:20:39.332Z,1.88
2018-11-26T13:23:10.696Z,1.96
2018-11-26T13:25:42.186Z,1.98
2018-11-26T13:28:11.299Z,1.94
2018-11-26T13:30:45.411Z,1.86
2018-11-26T13:33:16.255Z,1.71
2018-11-26T13:35:51.501Z,1.71
2018-11-26T13:38:28.257Z,1.74
2018-11-26T13:41:01.582Z,1.66
2018-11-26T13:43:33.149Z,1.69
2018-11-26T13:46:06.477Z,1.58
2018-11-26T13:48:36.512Z,1.69
2018-11-26T13:51:07.580Z,1.74
2018-11-26T13:53:38.992Z,1.75
2018-11-26T13:56:08.560Z,1.74
2018-11-26T13:58:42.375Z,1.89
2018-11-26T14:01:13.532Z,1.96
2018-11-26T14:03:43.510Z,1.97
2018-11-26T14:06:14.446Z,2.00
2018-11-26T14:08:45.657Z,2.00
2018-11-26T14:11:15.000Z,1.98
2018-11-26T14:13:46.689Z,1.72
2018-11-26T14:16:23.720Z,1.77
2018-11-26T14:18:56.476Z,1.84
2018-11-26T14:21:26.530Z,1.93
2018-11-26T14:24:05.925Z,1.93
2018-11-26T14:26:36.057Z,2.09
2018-11-26T14:29:06.229Z,2.06
2018-11-26T14:31:36.817Z,2.08
2018-11-26T14:34:10.073Z,1.96
2018-11-26T14:36:40.761Z,1.96
2018-11-26T14:39:10.653Z,1.82
2018-11-26T14:41:41.621Z,1.83
2018-11-26T14:44:11.718Z,1.90
2018-11-26T14:46:42.762Z,1.88
2018-11-26T14:49:14.363Z,1.94
2018-11-26T14:51:45.308Z,1.95
2018-11-26T14:54:15.109Z,1.87
2018-11-26T14:56:45.369Z,1.81
2018-11-26T14:59:15.878Z,1.82
2018-11-26T15:01:51.869Z,1.89
2018-11-26T15:04:24.849Z,1.92
2018-11-26T15:06:56.760Z,1.91
2018-11-26T15:09:27.982Z,1.90
2018-11-26T15:11:58.025Z,1.80
2018-11-26T15:14:30.519Z,1.77
2018-11-26T15:17:02.978Z,1.77
2018-11-26T15:19:32.957Z,1.82
2018-11-26T15:22:06.497Z,1.94
2018-11-26T15:24:46.663Z,1.96
2018-11-26T15:27:17.965Z,1.92
2018-11-26T15:29:48.153Z,1.82
2018-11-26T15:32:18.020Z,1.89
2018-11-26T15:34:53.837Z,2.02
2018-11-26T15:37:24.315Z,2.00
2018-11-26T15:39:58.434Z,1.77
2018-11-26T15:42:29.078Z,1.60
2018-11-26T15:45:06.995Z,1.50
2018-11-26T15:47:36.381Z,1.58
2018-11-26T15:50:07.665Z,1.56
2018-11-26T15:52:37.039Z,1.64
2018-11-26T15:55:09.955Z,1.60
2018-11-26T15:57:44.032Z,1.76
2018-11-26T16:00:16.899Z,1.70
2018-11-26T16:02:51.317Z,1.63
2018-11-26T16:05:30.734Z,1.65
2018-11-26T16:08:06.714Z,1.62
2018-11-26T16:10:38.453Z,1.62
2018-11-26T16:13:09.231Z,1.52
2018-11-26T16:15:43.546Z,1.48
2018-11-26T16:18:22.282Z,1.35
2018-11-26T16:20:58.089Z,1.38
2018-11-26T16:23:32.064Z,1.45
2018-11-26T16:26:03.221Z,1.56
2018-11-26T16:28:33.293Z,1.67
2018-11-26T16:31:04.396Z,1.74
2018-11-26T16:33:38.274Z,1.75
2018-11-26T16:36:08.376Z,1.71
2018-11-26T16:38:39.157Z,1.80
2018-11-26T16:41:10.285Z,1.78
2018-11-26T16:43:41.472Z,1.82
2018-11-26T16:46:12.353Z,1.84
2018-11-26T16:48:46.173Z,1.81
2018-11-26T16:51:15.541Z,1.68
2018-11-26T16:53:47.181Z,1.58
2018-11-26T16:56:24.265Z,1.59
2018-11-26T16:58:54.353Z,1.66
2018-11-26T17:01:24.457Z,1.70
2018-11-26T17:03:55.760Z,1.75
2018-11-26T17:06:25.465Z,1.78
2018-11-26T17:08:57.294Z,1.72
2018-11-26T17:11:34.346Z,1.76
2018-11-26T17:14:06.677Z,1.76
2018-11-26T17:16:36.378Z,1.70
2018-11-26T17:19:08.766Z,1.69
2018-11-26T17:21:38.254Z,1.65
2018-11-26T17:24:11.833Z,1.66
2018-11-26T17:26:42.400Z,1.67
2018-11-26T17:29:14.577Z,1.66
2018-11-26T17:31:46.662Z,1.70
2018-11-26T17:34:18.624Z,1.74
2018-11-26T17:36:53.441Z,1.69
2018-11-26T17:39:26.914Z,1.66
2018-11-26T17:41:58.700Z,1.58
2018-11-26T17:44:29.074Z,1.58
2018-11-26T17:46:59.580Z,1.66
2018-11-26T17:49:30.628Z,1.69
2018-11-26T17:52:01.532Z,1.71
2018-11-26T17:54:32.823Z,1.75
2018-11-26T17:57:02.790Z,1.65
2018-11-26T17:59:33.469Z,1.64
2018-11-26T18:02:04.177Z,1.67
2018-11-26T18:04:37.433Z,1.63
2018-11-26T18:07:07.773Z,1.65
2018-11-26T18:09:39.945Z,1.59
2018-11-26T18:12:11.661Z,1.60
2018-11-26T18:14:42.792Z,1.61
2018-11-26T18:17:12.652Z,1.46
2018-11-26T18:19:43.689Z,1.48
2018-11-26T18:22:13.787Z,1.39
2018-11-26T18:24:45.826Z,1.43
2018-11-26T18:27:15.265Z,1.41
2018-11-26T18:29:46.199Z,1.42
2018-11-26T18:32:15.613Z,1.46
2018-11-26T18:34:47.344Z,1.51
2018-11-26T18:37:17.914Z,1.53
2018-11-26T18:39:47.831Z,1.55
2018-11-26T18:42:18.766Z,1.45
2018-11-26T18:44:55.405Z,1.39
2018-11-26T18:47:27.292Z,1.48
2018-11-26T18:49:58.830Z,1.55
2018-11-26T18:52:30.182Z,1.55
2018-11-26T18:55:01.036Z,1.60
2018-11-26T18:57:31.137Z,1.60
2018-11-26T19:00:01.847Z,1.59
2018-11-26T19:02:32.800Z,1.55
2018-11-26T19:05:08.275Z,1.59
2018-11-26T19:07:39.975Z,1.55
2018-11-26T19:10:16.972Z,1.49
2018-11-26T19:12:51.681Z,1.57
2018-11-26T19:15:23.433Z,1.60
2018-11-26T19:17:57.313Z,1.51
2018-11-26T19:20:29.161Z,1.60
2018-11-26T19:22:59.098Z,1.62
2018-11-26T19:25:31.034Z,1.63
2018-11-26T19:28:12.564Z,1.59
2018-11-26T19:30:43.318Z,1.67
2018-11-26T19:33:15.063Z,1.73
2018-11-26T19:35:55.579Z,1.69
2018-11-26T19:38:26.509Z,1.62
2018-11-26T19:40:56.736Z,1.62
2018-11-26T19:43:27.115Z,1.66
2018-11-26T19:45:58.026Z,1.67
2018-11-26T19:48:28.574Z,1.69
2018-11-26T19:50:59.094Z,1.70
2018-11-26T19:53:30.180Z,1.70
2018-11-26T19:56:01.077Z,1.72
2018-11-26T19:58:38.992Z,1.65
2018-11-26T20:01:11.121Z,1.62
2018-11-26T20:03:46.829Z,1.64
2018-11-26T20:06:22.362Z,1.74
2018-11-26T20:08:58.003Z,1.70
2018-11-26T20:11:33.962Z,1.66
2018-11-26T20:14:04.402Z,1.72
2018-11-26T20:16:38.985Z,1.81
2018-11-26T20:19:11.213Z,1.76
2018-11-26T20:21:42.334Z,1.62
2018-11-26T20:24:13.365Z,1.60
2018-11-26T20:26:44.462Z,1.57
2018-11-26T20:29:15.141Z,1.42
2018-11-26T20:31:48.033Z,1.44
2018-11-26T20:34:18.257Z,1.49
2018-11-26T20:36:49.309Z,1.59
2018-11-26T20:39:25.441Z,1.61
2018-11-26T20:41:56.441Z,1.64
2018-11-26T20:44:27.578Z,1.57
2018-11-26T20:46:57.373Z,1.45
2018-11-26T20:49:28.190Z,1.35
2018-11-26T20:52:02.297Z,1.32
2018-11-26T20:54:35.049Z,1.48
2018-11-26T20:57:06.880Z,1.56
2018-11-26T20:59:37.708Z,1.63
2018-11-26T21:02:10.372Z,1.57
2018-11-26T21:04:41.893Z,1.61
2018-11-26T21:07:13.635Z,1.63
2018-11-26T21:09:44.564Z,1.61
2018-11-26T21:12:14.777Z,1.65
2018-11-26T21:14:45.611Z,1.56
2018-11-26T21:17:15.679Z,1.57
2018-11-26T21:19:49.799Z,1.52
2018-11-26T21:22:15.983Z,1.48
2018-11-26T21:24:48.159Z,1.49
2018-11-26T21:27:18.627Z,1.53
2018-11-26T21:29:48.689Z,1.60
2018-11-26T21:32:18.797Z,1.67
2018-11-26T21:34:52.133Z,1.56
2018-11-26T21:37:21.599Z,1.40
2018-11-26T21:39:54.757Z,1.39
2018-11-26T21:42:24.709Z,1.45
2018-11-26T21:44:55.770Z,1.60
2018-11-26T21:47:26.939Z,1.59
2018-11-26T21:49:57.417Z,1.61
2018-11-26T21:52:36.664Z,1.56
2018-11-26T21:55:16.417Z,1.52
2018-11-26T21:57:51.223Z,1.53
2018-11-26T22:00:26.913Z,1.66
2018-11-26T22:02:58.364Z,1.65
2018-11-26T22:05:29.945Z,1.67
2018-11-26T22:08:02.502Z,1.65
2018-11-26T22:10:36.725Z,1.68
2018-11-26T22:13:10.114Z,1.73
2018-11-26T22:15:41.884Z,1.74
2018-11-26T22:18:13.757Z,1.68
2018-11-26T22:20:43.893Z,1.70
2018-11-26T22:23:14.729Z,1.73
2018-11-26T22:25:44.859Z,1.70
2018-11-26T22:28:18.593Z,1.71
2018-11-26T22:30:49.893Z,1.71
2018-11-26T22:33:21.972Z,1.72
2018-11-26T22:35:52.924Z,1.69
2018-11-26T22:38:24.803Z,1.78
2018-11-26T22:40:54.937Z,1.72
2018-11-26T22:43:25.814Z,1.64
2018-11-26T22:45:56.781Z,1.57
2018-11-26T22:48:27.209Z,1.54
2018-11-26T22:50:57.909Z,1.57
2018-11-26T22:53:28.949Z,1.57
2018-11-26T22:55:58.958Z,1.56
2018-11-26T22:58:30.222Z,1.54
2018-11-26T23:01:01.191Z,1.58
2018-11-26T23:03:32.796Z,1.63
2018-11-26T23:06:06.239Z,1.55
2018-11-26T23:08:35.942Z,1.46
2018-11-26T23:11:07.929Z,1.47
2018-11-26T23:13:40.064Z,1.51
2018-11-26T23:16:13.909Z,1.49
2018-11-26T23:18:44.156Z,1.50
2018-11-26T23:21:15.145Z,1.53
2018-11-26T23:23:44.956Z,1.40
2018-11-26T23:26:15.153Z,1.36
2018-11-26T23:28:47.093Z,1.47
2018-11-26T23:31:19.159Z,1.46
2018-11-26T23:33:51.112Z,1.49
2018-11-26T23:36:24.937Z,1.53
2018-11-26T23:38:55.929Z,1.43
2018-11-26T23:41:26.049Z,1.39
2018-11-26T23:43:56.981Z,1.42
2018-11-26T23:46:33.096Z,1.49
2018-11-26T23:49:07.344Z,1.47
2018-11-26T23:51:38.204Z,1.50
2018-11-26T23:54:08.249Z,1.50
2018-11-26T23:56:39.180Z,1.54
